createdAt,value
2022-09-11T00:01:41.848Z,9.60
2022-09-11T00:04:09.366Z,8.52
2022-09-11T00:06:35.751Z,8.50
2022-09-11T00:09:04.121Z,8.88
2022-09-11T00:11:32.981Z,10.88
2022-09-11T00:13:59.388Z,9.73
2022-09-11T00:16:26.931Z,9.13
2022-09-11T00:18:54.089Z,8.63
2022-09-11T00:21:20.922Z,8.52
2022-09-11T00:23:50.339Z,8.27
2022-09-11T00:26:17.263Z,7.60
2022-09-11T00:28:44.001Z,8.15
2022-09-11T00:31:21.931Z,11.23
2022-09-11T00:33:48.745Z,10.90
2022-09-11T00:36:16.382Z,10.13
2022-09-11T00:38:42.939Z,10.18
2022-09-11T00:41:26.464Z,7.55
2022-09-11T00:44:02.637Z,9.13
2022-09-11T00:46:31.848Z,9.88
2022-09-11T00:48:59.852Z,11.55
2022-09-11T00:51:28.331Z,11.43
2022-09-11T00:53:56.387Z,9.85
2022-09-11T00:56:23.414Z,7.65
2022-09-11T00:58:50.994Z,9.95
2022-09-11T01:01:17.474Z,7.97
2022-09-11T01:03:44.241Z,7.78
2022-09-11T01:06:10.769Z,9.93
2022-09-11T01:08:38.471Z,9.23
2022-09-11T01:11:23.829Z,9.43
2022-09-11T01:13:57.198Z,9.93
2022-09-11T01:16:32.474Z,8.82
2022-09-11T01:19:01.865Z,8.38
2022-09-11T01:21:37.778Z,10.25
2022-09-11T01:24:09.258Z,11.65
2022-09-11T01:26:38.613Z,8.93
2022-09-11T01:29:08.165Z,6.50
2022-09-11T01:31:38.507Z,9.30
2022-09-11T01:34:29.587Z,6.00
2022-09-11T01:37:05.733Z,10.20
2022-09-11T01:39:38.355Z,7.75
2022-09-11T01:42:07.104Z,6.60
2022-09-11T01:44:39.097Z,9.98
2022-09-11T01:47:10.797Z,9.30
2022-09-11T01:49:48.121Z,9.60
2022-09-11T01:52:20.037Z,9.02
2022-09-11T01:54:51.145Z,11.57
2022-09-11T01:57:22.969Z,8.52
2022-09-11T01:59:53.961Z,11.18
2022-09-11T02:02:24.797Z,8.73
2022-09-11T02:05:20.508Z,7.72
2022-09-11T02:07:55.238Z,9.70
2022-09-11T02:10:25.490Z,8.90
2022-09-11T02:13:07.656Z,13.85
2022-09-11T02:15:38.898Z,10.10
2022-09-11T02:18:12.711Z,11.77
2022-09-11T02:20:39.272Z,9.52
2022-09-11T02:23:07.138Z,9.32
2022-09-11T02:25:33.526Z,9.20
2022-09-11T02:27:59.986Z,11.23
2022-09-11T02:30:26.532Z,8.52
2022-09-11T02:32:54.709Z,12.02
2022-09-11T02:35:22.137Z,9.85
2022-09-11T02:38:13.313Z,8.70
2022-09-11T02:41:03.051Z,10.68
2022-09-11T02:43:42.164Z,12.18
2022-09-11T02:46:08.591Z,8.38
2022-09-11T02:49:00.275Z,9.15
2022-09-11T02:51:45.554Z,8.63
2022-09-11T02:54:27.099Z,10.18
2022-09-11T02:57:01.473Z,6.35
2022-09-11T02:59:35.034Z,11.77
2022-09-11T03:02:02.174Z,11.43
2022-09-11T03:04:30.008Z,10.32
2022-09-11T03:06:58.355Z,8.93
2022-09-11T03:09:24.910Z,7.75
2022-09-11T03:11:55.749Z,7.50
2022-09-11T03:14:22.429Z,9.55
2022-09-11T03:16:49.988Z,11.55
2022-09-11T03:19:18.541Z,8.95
2022-09-11T03:21:44.967Z,8.02
2022-09-11T03:24:13.202Z,12.88
2022-09-11T03:26:39.838Z,8.82
2022-09-11T03:29:06.239Z,9.15
2022-09-11T03:31:34.482Z,10.13
2022-09-11T03:36:30.350Z,10.27
2022-09-11T03:38:57.048Z,9.70
2022-09-11T03:41:23.439Z,10.88
2022-09-11T03:43:49.782Z,10.05
2022-09-11T03:46:17.717Z,13.30
2022-09-11T03:48:46.905Z,9.85
2022-09-11T03:51:14.882Z,13.68
2022-09-11T03:53:41.831Z,12.77
2022-09-11T03:56:09.942Z,12.52
2022-09-11T03:58:43.196Z,18.38
2022-09-11T04:01:14.387Z,19.17
2022-09-11T04:03:42.434Z,18.38
2022-09-11T04:06:14.606Z,19.45
2022-09-11T04:08:41.314Z,19.92
2022-09-11T04:11:11.541Z,19.73
2022-09-11T04:13:39.128Z,22.05
2022-09-11T04:16:10.466Z,21.17
2022-09-11T04:18:39.527Z,24.45
2022-09-11T04:21:12.112Z,18.10
2022-09-11T04:23:39.913Z,17.55
2022-09-11T04:26:19.714Z,17.42
2022-09-11T04:28:50.536Z,15.65
2022-09-11T04:31:18.571Z,26.88
2022-09-11T04:33:46.185Z,18.80
2022-09-11T04:36:15.145Z,22.35
2022-09-11T04:38:41.903Z,28.38
2022-09-11T04:41:11.741Z,24.60
2022-09-11T04:43:38.923Z,21.73
2022-09-11T04:46:08.403Z,31.17
2022-09-11T04:48:34.773Z,33.00
2022-09-11T04:51:08.403Z,24.92
2022-09-11T04:53:37.451Z,36.20
2022-09-11T04:56:05.683Z,34.70
2022-09-11T04:58:38.570Z,32.60
2022-09-11T05:01:13.741Z,27.00
2022-09-11T05:03:43.927Z,33.17
2022-09-11T05:06:11.403Z,31.75
2022-09-11T05:08:38.091Z,29.83
2022-09-11T05:11:06.013Z,33.67
2022-09-11T05:13:36.229Z,32.53
2022-09-11T05:16:04.126Z,30.98
2022-09-11T05:18:31.959Z,27.83
2022-09-11T05:21:04.618Z,30.15
2022-09-11T05:23:31.898Z,35.60
2022-09-11T05:26:00.828Z,28.63
2022-09-11T05:28:27.805Z,34.90
2022-09-11T05:30:54.665Z,33.53
2022-09-11T05:33:23.654Z,31.65
2022-09-11T05:35:51.267Z,41.75
2022-09-11T05:38:18.532Z,31.75
2022-09-11T05:40:45.945Z,38.72
2022-09-11T05:43:13.205Z,37.33
2022-09-11T05:45:39.613Z,31.15
2022-09-11T05:48:06.334Z,29.45
2022-09-11T05:50:36.716Z,29.67
2022-09-11T05:53:05.560Z,28.75
2022-09-11T05:55:38.488Z,31.35
2022-09-11T05:58:05.134Z,29.50
2022-09-11T06:00:32.166Z,32.75
2022-09-11T06:02:58.959Z,24.17
2022-09-11T06:05:28.830Z,27.42
2022-09-11T06:07:58.297Z,30.80
2022-09-11T06:10:24.680Z,26.63
2022-09-11T06:12:52.194Z,31.27
2022-09-11T06:15:42.914Z,32.50
2022-09-11T06:18:07.289Z,34.65
2022-09-11T06:20:33.881Z,31.80
2022-09-11T06:23:00.934Z,32.05
2022-09-11T06:25:27.666Z,35.45
2022-09-11T06:27:55.716Z,33.65
2022-09-11T06:30:22.234Z,32.10
2022-09-11T06:32:49.355Z,27.92
2022-09-11T06:35:15.860Z,30.42
2022-09-11T06:37:42.712Z,29.48
2022-09-11T06:40:09.517Z,27.25
2022-09-11T06:42:35.911Z,28.27
2022-09-11T06:45:02.639Z,29.95
2022-09-11T06:47:30.227Z,28.92
2022-09-11T06:49:57.025Z,29.70
2022-09-11T06:52:42.961Z,26.73
2022-09-11T06:55:20.827Z,23.10
2022-09-11T06:57:53.889Z,25.75
2022-09-11T07:00:25.138Z,25.92
2022-09-11T07:02:55.310Z,28.30
2022-09-11T07:05:23.071Z,23.88
2022-09-11T07:07:51.825Z,23.65
2022-09-11T07:10:18.197Z,23.80
2022-09-11T07:12:49.050Z,21.77
2022-09-11T07:15:15.694Z,21.70
2022-09-11T07:17:42.511Z,19.60
2022-09-11T07:20:11.082Z,25.20
2022-09-11T07:22:37.632Z,22.00
2022-09-11T07:25:09.021Z,20.20
2022-09-11T07:27:38.881Z,20.63
2022-09-11T07:30:06.221Z,20.92
2022-09-11T07:32:37.501Z,21.23
2022-09-11T07:35:07.592Z,18.27
2022-09-11T07:37:34.617Z,17.63
2022-09-11T07:40:01.516Z,21.08
2022-09-11T07:42:29.106Z,20.40
2022-09-11T07:44:56.836Z,18.48
2022-09-11T07:47:23.389Z,17.85
2022-09-11T07:49:51.529Z,21.35
2022-09-11T07:52:20.576Z,20.33
2022-09-11T07:54:53.953Z,18.02
2022-09-11T07:57:24.315Z,22.80
2022-09-11T07:59:52.592Z,18.83
2022-09-11T08:02:20.163Z,17.65
2022-09-11T08:04:50.001Z,17.60
2022-09-11T08:07:17.744Z,17.30
2022-09-11T08:09:44.276Z,17.05
2022-09-11T08:12:11.405Z,18.17
2022-09-11T08:14:42.604Z,14.52
2022-09-11T08:17:19.354Z,14.52
2022-09-11T08:19:46.824Z,15.68
2022-09-11T08:22:13.383Z,13.77
2022-09-11T08:24:43.722Z,14.37
2022-09-11T08:27:13.422Z,12.95
2022-09-11T08:29:41.811Z,15.18
2022-09-11T08:32:09.422Z,12.77
2022-09-11T08:34:38.363Z,15.88
2022-09-11T08:37:04.799Z,15.98
2022-09-11T08:39:33.765Z,14.68
2022-09-11T08:42:04.537Z,13.93
2022-09-11T08:44:39.118Z,13.57
2022-09-11T08:47:35.029Z,14.27
2022-09-11T08:50:01.393Z,13.75
2022-09-11T08:52:29.070Z,14.10
2022-09-11T08:54:59.257Z,14.10
2022-09-11T08:57:49.162Z,14.02
2022-09-11T09:00:22.458Z,14.00
2022-09-11T09:03:08.699Z,11.68
2022-09-11T09:05:50.138Z,12.57
2022-09-11T09:08:41.296Z,12.98
2022-09-11T09:11:26.646Z,14.15
2022-09-11T09:14:14.626Z,13.05
2022-09-11T09:16:42.433Z,13.80
2022-09-11T09:19:14.721Z,11.10
2022-09-11T09:21:45.794Z,10.70
2022-09-11T09:24:19.406Z,11.50
2022-09-11T09:26:56.095Z,10.77
2022-09-11T09:29:31.652Z,11.10
2022-09-11T09:32:04.877Z,10.07
2022-09-11T09:34:35.013Z,12.23
2022-09-11T09:37:10.777Z,12.27
2022-09-11T09:39:37.308Z,10.48
2022-09-11T09:42:16.658Z,11.18
2022-09-11T09:45:01.439Z,10.90
2022-09-11T09:47:29.805Z,10.73
2022-09-11T09:49:58.189Z,10.77
2022-09-11T09:52:26.154Z,14.27
2022-09-11T09:54:54.906Z,12.00
2022-09-11T09:57:23.491Z,14.75
2022-09-11T09:59:49.782Z,9.93
2022-09-11T10:02:36.892Z,10.00
2022-09-11T10:05:14.904Z,10.57
2022-09-11T10:07:51.643Z,13.80
2022-09-11T10:10:22.549Z,11.68
2022-09-11T10:12:48.914Z,12.13
2022-09-11T10:15:19.629Z,11.57
2022-09-11T10:17:46.059Z,12.77
2022-09-11T10:20:37.661Z,12.27
2022-09-11T10:23:23.399Z,10.60
2022-09-11T10:25:52.343Z,12.73
2022-09-11T10:28:23.119Z,9.77
2022-09-11T10:30:53.372Z,10.88
2022-09-11T10:33:29.204Z,10.70
2022-09-11T10:35:56.124Z,11.05
2022-09-11T10:38:27.000Z,10.27
2022-09-11T10:40:56.638Z,8.07
2022-09-11T10:43:25.482Z,13.45
2022-09-11T10:46:02.329Z,9.88
2022-09-11T10:48:32.562Z,9.70
2022-09-11T10:51:09.757Z,7.20
2022-09-11T10:53:48.067Z,7.05
2022-09-11T10:56:15.114Z,7.53
2022-09-11T10:58:43.040Z,7.40
2022-09-11T11:01:09.916Z,9.02
2022-09-11T11:03:36.545Z,9.43
2022-09-11T11:06:11.851Z,9.68
2022-09-11T11:08:57.475Z,8.50
2022-09-11T11:11:42.870Z,7.65
2022-09-11T11:14:18.337Z,7.13
2022-09-11T11:16:45.647Z,6.70
2022-09-11T11:19:15.068Z,9.50
2022-09-11T11:21:54.825Z,7.47
2022-09-11T11:24:46.459Z,7.53
2022-09-11T11:27:19.030Z,8.77
2022-09-11T11:29:51.471Z,6.68
2022-09-11T11:32:28.433Z,6.57
2022-09-11T11:35:01.533Z,6.28
2022-09-11T11:37:35.985Z,7.22
2022-09-11T11:40:10.491Z,9.00
2022-09-11T11:42:36.891Z,6.45
2022-09-11T11:45:09.347Z,5.70
2022-09-11T11:47:38.035Z,6.38
2022-09-11T11:50:22.874Z,6.90
2022-09-11T11:53:08.364Z,7.05
2022-09-11T11:55:57.019Z,6.75
2022-09-11T11:58:32.283Z,7.15
2022-09-11T12:01:01.651Z,7.78
2022-09-11T12:03:33.825Z,6.10
2022-09-11T12:06:00.405Z,7.25
2022-09-11T12:08:27.770Z,7.70
2022-09-11T12:11:03.010Z,6.47
2022-09-11T12:13:31.365Z,7.18
2022-09-11T12:16:18.042Z,6.82
2022-09-11T12:19:04.309Z,6.97
2022-09-11T12:21:31.618Z,7.28
2022-09-11T12:23:58.092Z,7.07
2022-09-11T12:26:25.438Z,6.90
2022-09-11T12:29:14.540Z,6.00
2022-09-11T12:31:49.750Z,5.80
2022-09-11T12:34:17.473Z,6.90
2022-09-11T12:36:54.018Z,5.13
2022-09-11T12:39:26.595Z,6.15
2022-09-11T12:41:53.590Z,5.65
2022-09-11T12:44:30.781Z,5.70
2022-09-11T12:46:57.125Z,6.90
2022-09-11T12:49:25.060Z,8.60
2022-09-11T12:51:56.053Z,9.55
2022-09-11T12:56:51.506Z,9.75
2022-09-11T12:59:25.764Z,6.05
2022-09-11T13:01:52.502Z,6.78
2022-09-11T13:04:21.858Z,6.60
2022-09-11T13:06:54.722Z,7.25
2022-09-11T13:09:23.453Z,5.78
2022-09-11T13:11:51.388Z,6.57
2022-09-11T13:14:28.066Z,5.28
2022-09-11T13:16:54.994Z,5.80
2022-09-11T13:19:21.838Z,7.63
2022-09-11T13:21:56.747Z,6.28
2022-09-11T13:24:27.733Z,6.47
2022-09-11T13:29:22.966Z,7.40
2022-09-11T13:31:49.773Z,6.47
2022-09-11T13:34:18.247Z,7.20
2022-09-11T13:36:46.982Z,5.63
2022-09-11T13:39:14.535Z,6.65
2022-09-11T13:41:43.718Z,5.82
2022-09-11T13:44:11.999Z,6.18
2022-09-11T13:46:48.662Z,6.00
2022-09-11T13:49:18.105Z,4.85
2022-09-11T13:51:45.200Z,4.50
2022-09-11T13:54:14.411Z,3.88
2022-09-11T13:56:47.335Z,3.50
2022-09-11T13:59:26.812Z,3.60
2022-09-11T14:01:55.576Z,3.55
2022-09-11T14:04:22.477Z,3.90
2022-09-11T14:06:49.037Z,4.13
2022-09-11T14:09:18.219Z,3.92
2022-09-11T14:11:44.919Z,4.18
2022-09-11T14:14:13.873Z,4.07
2022-09-11T14:16:55.294Z,3.92
2022-09-11T14:19:26.991Z,3.65
2022-09-11T14:21:53.448Z,4.57
2022-09-11T14:24:22.893Z,4.18
2022-09-11T14:26:49.487Z,4.07
2022-09-11T14:29:29.207Z,3.33
2022-09-11T14:32:15.642Z,4.80
2022-09-11T14:34:42.118Z,4.32
2022-09-11T14:37:12.532Z,3.83
2022-09-11T14:39:42.868Z,4.53
2022-09-11T14:42:12.780Z,3.88
2022-09-11T14:44:40.382Z,6.82
2022-09-11T14:47:06.936Z,4.70
2022-09-11T14:49:33.426Z,4.97
2022-09-11T14:52:00.690Z,5.18
2022-09-11T14:54:31.153Z,4.78
2022-09-11T14:56:59.129Z,6.07
2022-09-11T14:59:25.755Z,4.95
2022-09-11T15:01:52.361Z,5.18
2022-09-11T15:04:20.211Z,4.15
2022-09-11T15:06:55.407Z,3.97
2022-09-11T15:09:22.675Z,4.18
2022-09-11T15:11:51.673Z,2.95
2022-09-11T15:14:32.560Z,6.63
2022-09-11T15:17:06.941Z,3.83
2022-09-11T15:19:35.220Z,4.97
2022-09-11T15:22:01.643Z,3.60
2022-09-11T15:24:28.311Z,5.20
2022-09-11T15:26:54.887Z,4.47
2022-09-11T15:29:21.888Z,4.15
2022-09-11T15:31:48.848Z,3.95
2022-09-11T15:34:16.051Z,3.45
2022-09-11T15:36:43.052Z,3.20
2022-09-11T15:39:12.231Z,3.58
2022-09-11T15:41:39.025Z,3.47
2022-09-11T15:44:13.015Z,3.78
2022-09-11T15:46:39.721Z,4.57
2022-09-11T15:49:08.816Z,4.57
2022-09-11T15:51:35.225Z,5.93
2022-09-11T15:54:02.603Z,3.45
2022-09-11T15:56:29.147Z,4.38
2022-09-11T15:58:59.052Z,3.25
2022-09-11T16:01:29.890Z,2.40
2022-09-11T16:03:57.847Z,4.75
2022-09-11T16:06:25.784Z,3.22
2022-09-11T16:08:55.746Z,2.65
2022-09-11T16:11:22.170Z,3.45
2022-09-11T16:13:52.114Z,2.35
2022-09-11T16:16:19.099Z,3.05
2022-09-11T16:18:45.911Z,3.17
2022-09-11T16:21:13.297Z,3.85
2022-09-11T16:23:40.899Z,3.58
2022-09-11T16:26:12.188Z,4.18
2022-09-11T16:28:39.851Z,3.05
2022-09-11T16:31:07.354Z,3.83
2022-09-11T16:33:36.279Z,3.47
2022-09-11T16:36:05.572Z,4.18
2022-09-11T16:38:32.597Z,3.88
2022-09-11T16:41:08.155Z,2.78
2022-09-11T16:43:38.656Z,2.40
2022-09-11T16:46:05.243Z,3.03
2022-09-11T16:48:32.004Z,3.45
2022-09-11T16:50:58.380Z,3.42
2022-09-11T16:53:28.769Z,3.08
2022-09-11T16:55:55.617Z,3.15
2022-09-11T16:58:22.577Z,3.78
2022-09-11T17:00:49.431Z,3.65
2022-09-11T17:03:17.045Z,3.42
2022-09-11T17:05:50.532Z,4.85
2022-09-11T17:08:17.399Z,4.15
2022-09-11T17:10:44.705Z,3.13
2022-09-11T17:13:11.352Z,3.28
2022-09-11T17:15:37.925Z,4.05
2022-09-11T17:18:04.607Z,3.47
2022-09-11T17:20:30.976Z,3.92
2022-09-11T17:22:58.290Z,3.20
2022-09-11T17:25:25.818Z,4.05
2022-09-11T17:27:52.218Z,6.13
2022-09-11T17:30:18.830Z,3.20
2022-09-11T17:32:45.498Z,3.55
2022-09-11T17:35:12.106Z,5.15
2022-09-11T17:37:38.530Z,5.82
2022-09-11T17:40:05.916Z,5.05
2022-09-11T17:42:32.871Z,5.43
2022-09-11T17:44:59.995Z,3.75
2022-09-11T17:47:33.982Z,4.38
2022-09-11T17:50:03.544Z,4.15
2022-09-11T17:52:31.396Z,3.83
2022-09-11T17:54:57.808Z,3.55
2022-09-11T17:57:25.515Z,3.55
2022-09-11T17:59:52.707Z,4.40
2022-09-11T18:02:19.871Z,3.30
2022-09-11T18:04:49.435Z,5.22
2022-09-11T18:07:16.403Z,3.22
2022-09-11T18:09:42.770Z,4.35
2022-09-11T18:12:10.075Z,4.00
2022-09-11T18:14:37.585Z,5.93
2022-09-11T18:17:04.393Z,4.15
2022-09-11T18:19:30.897Z,3.58
2022-09-11T18:21:57.533Z,3.58
2022-09-11T18:24:24.260Z,4.45
2022-09-11T18:26:55.078Z,4.45
2022-09-11T18:29:23.790Z,5.97
2022-09-11T18:31:51.983Z,4.47
2022-09-11T18:34:23.152Z,4.75
2022-09-11T18:39:19.615Z,4.07
2022-09-11T18:41:46.416Z,4.65
2022-09-11T18:44:19.314Z,4.65
2022-09-11T18:46:46.301Z,5.68
2022-09-11T18:49:13.425Z,4.07
2022-09-11T18:51:40.228Z,4.45
2022-09-11T18:54:06.589Z,5.32
2022-09-11T18:56:33.170Z,4.60
2022-09-11T18:59:00.318Z,5.05
2022-09-11T19:01:33.406Z,5.20
2022-09-11T19:04:00.197Z,5.28
2022-09-11T19:06:28.698Z,5.28
2022-09-11T19:08:55.750Z,5.72
2022-09-11T19:11:25.968Z,6.03
2022-09-11T19:13:53.217Z,5.75
2022-09-11T19:16:21.637Z,8.43
2022-09-11T19:18:48.471Z,8.25
2022-09-11T19:21:16.246Z,5.95
2022-09-11T19:23:43.658Z,7.32
2022-09-11T19:26:17.312Z,6.38
2022-09-11T19:28:44.424Z,6.82
2022-09-11T19:31:12.531Z,8.10
2022-09-11T19:33:39.468Z,6.45
2022-09-11T19:36:09.615Z,6.57
2022-09-11T19:38:37.394Z,6.60
2022-09-11T19:41:04.194Z,7.35
2022-09-11T19:43:31.239Z,8.63
2022-09-11T19:46:11.222Z,7.57
2022-09-11T19:48:37.898Z,7.60
2022-09-11T19:51:12.229Z,9.48
2022-09-11T19:53:39.243Z,9.77
2022-09-11T19:56:06.328Z,8.52
2022-09-11T19:58:33.089Z,8.73
2022-09-11T20:01:03.391Z,9.60
2022-09-11T20:03:30.539Z,9.20
2022-09-11T20:05:57.372Z,9.13
2022-09-11T20:08:23.718Z,8.40
2022-09-11T20:10:50.254Z,9.60
2022-09-11T20:13:16.737Z,8.40
2022-09-11T20:15:43.491Z,8.88
2022-09-11T20:18:10.344Z,10.57
2022-09-11T20:20:37.096Z,8.88
2022-09-11T20:23:03.905Z,8.95
2022-09-11T20:25:30.515Z,10.48
2022-09-11T20:28:00.403Z,10.35
2022-09-11T20:30:27.547Z,10.57
2022-09-11T20:32:53.899Z,9.02
2022-09-11T20:35:20.309Z,9.20
2022-09-11T20:37:46.694Z,10.70
2022-09-11T20:40:13.190Z,8.18
2022-09-11T20:42:39.854Z,9.70
2022-09-11T20:45:06.507Z,11.02
2022-09-11T20:47:32.895Z,9.20
2022-09-11T20:50:00.657Z,12.20
2022-09-11T20:52:27.281Z,10.90
2022-09-11T20:54:54.333Z,8.18
2022-09-11T20:57:20.763Z,8.70
2022-09-11T20:59:47.223Z,15.88
2022-09-11T21:02:14.765Z,9.10
2022-09-11T21:04:41.226Z,8.90
2022-09-11T21:07:07.636Z,8.23
2022-09-11T21:09:34.174Z,9.93
2022-09-11T21:12:00.579Z,8.50
2022-09-11T21:14:27.045Z,8.65
2022-09-11T21:16:53.530Z,9.25
2022-09-11T21:19:19.975Z,8.70
2022-09-11T21:21:46.485Z,9.10
2022-09-11T21:24:13.186Z,8.73
2022-09-11T21:26:39.890Z,11.27
2022-09-11T21:29:07.966Z,10.38
2022-09-11T21:31:35.177Z,9.57
2022-09-11T21:34:01.880Z,8.45
2022-09-11T21:36:28.682Z,8.80
2022-09-11T21:38:55.082Z,8.02
2022-09-11T21:41:21.503Z,9.90
2022-09-11T21:43:48.025Z,8.35
2022-09-11T21:46:14.418Z,11.23
2022-09-11T21:48:41.254Z,7.63
2022-09-11T21:51:15.219Z,8.85
2022-09-11T21:53:42.849Z,7.70
2022-09-11T21:56:19.936Z,8.32
2022-09-11T21:58:47.206Z,8.90
2022-09-11T22:01:14.151Z,8.63
2022-09-11T22:03:42.473Z,8.40
2022-09-11T22:06:10.248Z,7.20
2022-09-11T22:08:41.259Z,8.43
2022-09-11T22:11:07.653Z,7.25
2022-09-11T22:13:37.082Z,7.53
2022-09-11T22:16:07.123Z,6.30
2022-09-11T22:18:38.912Z,6.88
2022-09-11T22:21:05.657Z,6.88
2022-09-11T22:23:32.262Z,6.95
2022-09-11T22:26:05.084Z,6.97
2022-09-11T22:28:31.603Z,6.13
2022-09-11T22:30:57.951Z,7.45
2022-09-11T22:33:24.487Z,7.57
2022-09-11T22:35:51.055Z,9.18
2022-09-11T22:38:17.476Z,6.22
2022-09-11T22:40:43.956Z,6.13
2022-09-11T22:43:10.328Z,5.40
2022-09-11T22:45:37.314Z,5.95
2022-09-11T22:48:03.803Z,7.70
2022-09-11T22:50:31.044Z,6.47
2022-09-11T22:52:57.396Z,5.97
2022-09-11T22:55:23.921Z,6.30
2022-09-11T22:57:50.305Z,5.53
2022-09-11T23:00:19.021Z,6.32
2022-09-11T23:02:45.376Z,5.18
2022-09-11T23:05:47.053Z,8.30
2022-09-11T23:08:13.395Z,5.28
2022-09-11T23:10:43.867Z,4.70
2022-09-11T23:13:10.230Z,5.07
2022-09-11T23:15:36.754Z,4.88
2022-09-11T23:18:03.289Z,5.20
2022-09-11T23:20:30.440Z,5.53
2022-09-11T23:22:56.828Z,4.63
2022-09-11T23:25:25.166Z,5.53
2022-09-11T23:27:53.314Z,4.00
2022-09-11T23:30:20.071Z,6.00
2022-09-11T23:32:46.521Z,5.78
2022-09-11T23:35:13.042Z,4.50
2022-09-11T23:37:42.348Z,6.38
2022-09-11T23:40:11.672Z,4.63
2022-09-11T23:42:38.033Z,4.72
2022-09-11T23:45:04.698Z,4.43
2022-09-11T23:47:31.007Z,7.85
2022-09-11T23:49:57.790Z,7.07
2022-09-11T23:52:24.090Z,3.97
2022-09-11T23:54:50.498Z,6.03
2022-09-11T23:57:16.922Z,5.03
2022-09-11T23:59:43.250Z,5.78
